Star Prairie, Wisconsin
Current Conditions -  °F | °C
As of 6:35 AM on Thursday 18 Dec 2014 (Local Time) from KRNH Reporting Station
Overcast Overcast  
Wind Chill: 14°   Ceiling: 1100
Heat Index: 21°   Visibility: 10mi
Dew Point: 18°   Wind: 5mph
Humidity: 91%   Direction: 40°NE
Pressure: 30.29"   Gusts: NA
Location:  45.2°N, 92.53°W
Report Text: KRNH 181235Z AUTO 04004KT 10SM OVC011 M06/M08 A3029 RMK AO2 T10631076
Loading
Personal Weather Stations






























Interactive Weather Map New forecast layout! Learn more

10-Day Weather Forecast

Advertisements
Track Severe Weather on mobile